sensor_id;sensor_type;location;lat;lon;timestamp;pressure;altitude;pressure_sealevel;temperature;humidity
73671;BME280;61968;48.178;11.566;2023-05-11T00:01:19;95576.75;;;11.19;45.53
73671;BME280;61968;48.178;11.566;2023-05-11T00:03:46;95573.34;;;11.07;45.54
73671;BME280;61968;48.178;11.566;2023-05-11T00:06:12;95570.81;;;10.83;46.13
73671;BME280;61968;48.178;11.566;2023-05-11T00:08:38;95579.16;;;10.92;46.88
73671;BME280;61968;48.178;11.566;2023-05-11T00:11:06;95564.72;;;10.83;46.63
73671;BME280;61968;48.178;11.566;2023-05-11T00:13:33;95570.00;;;10.83;46.28
73671;BME280;61968;48.178;11.566;2023-05-11T00:15:59;95563.00;;;10.65;47.08
73671;BME280;61968;48.178;11.566;2023-05-11T00:18:27;95556.94;;;10.65;46.84
73671;BME280;61968;48.178;11.566;2023-05-11T00:20:54;95559.72;;;10.58;46.85
73671;BME280;61968;48.178;11.566;2023-05-11T00:23:20;95562.00;;;10.54;47.20
73671;BME280;61968;48.178;11.566;2023-05-11T00:25:47;95560.13;;;10.67;47.19
73671;BME280;61968;48.178;11.566;2023-05-11T00:28:13;95564.38;;;10.68;46.71
73671;BME280;61968;48.178;11.566;2023-05-11T00:30:40;95558.25;;;10.79;46.97
73671;BME280;61968;48.178;11.566;2023-05-11T00:33:07;95560.00;;;10.73;47.20
73671;BME280;61968;48.178;11.566;2023-05-11T00:35:34;95556.38;;;10.91;47.89
73671;BME280;61968;48.178;11.566;2023-05-11T00:38:01;95554.16;;;11.00;46.19
73671;BME280;61968;48.178;11.566;2023-05-11T00:40:29;95551.50;;;11.00;46.98
73671;BME280;61968;48.178;11.566;2023-05-11T00:42:56;95544.25;;;11.07;45.83
73671;BME280;61968;48.178;11.566;2023-05-11T00:45:23;95553.19;;;10.89;46.24
73671;BME280;61968;48.178;11.566;2023-05-11T00:47:50;95549.63;;;10.83;46.81
73671;BME280;61968;48.178;11.566;2023-05-11T00:50:17;95546.66;;;10.80;46.90
73671;BME280;61968;48.178;11.566;2023-05-11T00:52:45;95548.69;;;10.90;47.05
73671;BME280;61968;48.178;11.566;2023-05-11T00:55:12;95545.28;;;11.06;46.27
73671;BME280;61968;48.178;11.566;2023-05-11T00:57:39;95551.66;;;10.93;45.88
73671;BME280;61968;48.178;11.566;2023-05-11T01:00:07;95544.13;;;10.73;46.79
73671;BME280;61968;48.178;11.566;2023-05-11T01:02:33;95548.84;;;10.71;46.63
73671;BME280;61968;48.178;11.566;2023-05-11T01:05:00;95544.84;;;10.69;46.77
73671;BME280;61968;48.178;11.566;2023-05-11T01:07:31;95540.00;;;10.66;47.51
73671;BME280;61968;48.178;11.566;2023-05-11T01:10:02;95548.25;;;10.81;46.80
73671;BME280;61968;48.178;11.566;2023-05-11T01:12:36;95532.50;;;10.86;46.35
73671;BME280;61968;48.178;11.566;2023-05-11T01:15:08;95538.22;;;10.95;46.27
73671;BME280;61968;48.178;11.566;2023-05-11T01:17:43;95539.41;;;10.75;46.42
73671;BME280;61968;48.178;11.566;2023-05-11T01:20:14;95543.31;;;10.73;46.41
73671;BME280;61968;48.178;11.566;2023-05-11T01:23:11;95538.09;;;10.61;46.31
73671;BME280;61968;48.178;11.566;2023-05-11T01:25:55;95534.75;;;10.54;47.15
73671;BME280;61968;48.178;11.566;2023-05-11T01:28:48;95533.13;;;10.65;47.41
73671;BME280;61968;48.178;11.566;2023-05-11T01:31:20;95531.44;;;10.87;46.75
73671;BME280;61968;48.178;11.566;2023-05-11T01:33:53;95525.94;;;10.89;46.11
73671;BME280;61968;48.178;11.566;2023-05-11T01:36:25;95525.75;;;10.67;46.16
73671;BME280;61968;48.178;11.566;2023-05-11T01:38:53;95536.72;;;10.58;46.27
73671;BME280;61968;48.178;11.566;2023-05-11T01:41:24;95534.19;;;10.52;46.52
73671;BME280;61968;48.178;11.566;2023-05-11T01:43:54;95536.16;;;10.45;47.38
73671;BME280;61968;48.178;11.566;2023-05-11T01:46:25;95533.63;;;10.50;47.31
73671;BME280;61968;48.178;11.566;2023-05-11T01:48:55;95537.25;;;10.60;46.80
73671;BME280;61968;48.178;11.566;2023-05-11T01:51:23;95525.78;;;10.55;47.00
73671;BME280;61968;48.178;11.566;2023-05-11T01:53:52;95521.66;;;10.59;47.39
73671;BME280;61968;48.178;11.566;2023-05-11T01:56:20;95528.34;;;10.50;46.69
73671;BME280;61968;48.178;11.566;2023-05-11T01:58:48;95526.38;;;10.45;47.15
73671;BME280;61968;48.178;11.566;2023-05-11T02:01:16;95529.72;;;10.52;47.94
73671;BME280;61968;48.178;11.566;2023-05-11T02:03:45;95531.84;;;10.67;47.42
73671;BME280;61968;48.178;11.566;2023-05-11T02:06:14;95532.66;;;10.79;46.43
73671;BME280;61968;48.178;11.566;2023-05-11T02:08:43;95523.19;;;10.83;46.65
73671;BME280;61968;48.178;11.566;2023-05-11T02:11:10;95528.91;;;10.92;46.13
73671;BME280;61968;48.178;11.566;2023-05-11T02:13:40;95526.47;;;10.62;46.65
73671;BME280;61968;48.178;11.566;2023-05-11T02:16:08;95527.03;;;10.64;47.05
73671;BME280;61968;48.178;11.566;2023-05-11T02:18:38;95528.78;;;10.58;47.07
73671;BME280;61968;48.178;11.566;2023-05-11T02:21:07;95525.28;;;10.70;46.99
73671;BME280;61968;48.178;11.566;2023-05-11T02:23:35;95523.09;;;10.67;46.67
73671;BME280;61968;48.178;11.566;2023-05-11T02:26:02;95518.16;;;10.70;45.82
73671;BME280;61968;48.178;11.566;2023-05-11T02:28:29;95515.13;;;10.50;46.29
73671;BME280;61968;48.178;11.566;2023-05-11T02:30:59;95518.72;;;10.44;46.81
73671;BME280;61968;48.178;11.566;2023-05-11T02:33:31;95519.16;;;10.52;46.83
73671;BME280;61968;48.178;11.566;2023-05-11T02:36:01;95517.78;;;10.50;46.45
73671;BME280;61968;48.178;11.566;2023-05-11T02:38:32;95522.25;;;10.49;47.52
73671;BME280;61968;48.178;11.566;2023-05-11T02:41:03;95517.44;;;10.46;46.83
73671;BME280;61968;48.178;11.566;2023-05-11T02:43:32;95517.47;;;10.34;47.31
73671;BME280;61968;48.178;11.566;2023-05-11T02:46:02;95519.66;;;10.37;46.55
73671;BME280;61968;48.178;11.566;2023-05-11T02:48:31;95519.41;;;10.39;47.48
73671;BME280;61968;48.178;11.566;2023-05-11T02:51:01;95513.56;;;10.37;47.04
73671;BME280;61968;48.178;11.566;2023-05-11T02:53:33;95518.16;;;10.30;47.06
73671;BME280;61968;48.178;11.566;2023-05-11T02:56:01;95516.47;;;10.12;48.18
73671;BME280;61968;48.178;11.566;2023-05-11T02:58:28;95513.09;;;10.40;46.80
73671;BME280;61968;48.178;11.566;2023-05-11T03:00:55;95513.97;;;10.46;46.47
73671;BME280;61968;48.178;11.566;2023-05-11T03:03:21;95514.13;;;10.39;46.45
73671;BME280;61968;48.178;11.566;2023-05-11T03:05:48;95512.06;;;10.29;46.83
73671;BME280;61968;48.178;11.566;2023-05-11T03:08:15;95512.72;;;10.36;46.58
73671;BME280;61968;48.178;11.566;2023-05-11T03:10:43;95507.91;;;10.33;46.28
73671;BME280;61968;48.178;11.566;2023-05-11T03:13:10;95521.63;;;10.18;47.61
73671;BME280;61968;48.178;11.566;2023-05-11T03:15:37;95509.13;;;10.14;47.85
73671;BME280;61968;48.178;11.566;2023-05-11T03:18:04;95514.66;;;10.01;47.50
73671;BME280;61968;48.178;11.566;2023-05-11T03:20:33;95510.06;;;9.96;47.30
73671;BME280;61968;48.178;11.566;2023-05-11T03:23:01;95514.88;;;10.11;47.13
73671;BME280;61968;48.178;11.566;2023-05-11T03:25:28;95514.28;;;10.09;47.13
73671;BME280;61968;48.178;11.566;2023-05-11T03:27:57;95507.25;;;10.26;47.36
73671;BME280;61968;48.178;11.566;2023-05-11T03:30:24;95514.59;;;10.24;47.38
73671;BME280;61968;48.178;11.566;2023-05-11T03:32:51;95508.78;;;10.22;46.45
73671;BME280;61968;48.178;11.566;2023-05-11T03:35:18;95510.06;;;10.08;47.42
73671;BME280;61968;48.178;11.566;2023-05-11T03:37:47;95502.72;;;10.10;47.50
73671;BME280;61968;48.178;11.566;2023-05-11T03:40:15;95505.41;;;10.27;47.55
73671;BME280;61968;48.178;11.566;2023-05-11T03:42:43;95499.16;;;10.45;47.16
73671;BME280;61968;48.178;11.566;2023-05-11T03:45:13;95497.34;;;10.33;46.54
73671;BME280;61968;48.178;11.566;2023-05-11T03:47:43;95496.56;;;10.21;46.57
73671;BME280;61968;48.178;11.566;2023-05-11T03:50:12;95498.88;;;10.17;47.00
73671;BME280;61968;48.178;11.566;2023-05-11T03:52:39;95489.19;;;10.35;47.12
73671;BME280;61968;48.178;11.566;2023-05-11T03:55:07;95486.28;;;10.77;46.51
73671;BME280;61968;48.178;11.566;2023-05-11T03:57:34;95487.00;;;11.01;47.94
73671;BME280;61968;48.178;11.566;2023-05-11T04:00:01;95486.38;;;11.11;46.50
73671;BME280;61968;48.178;11.566;2023-05-11T04:02:29;95485.47;;;11.05;44.70
73671;BME280;61968;48.178;11.566;2023-05-11T04:04:55;95484.25;;;10.96;45.31
73671;BME280;61968;48.178;11.566;2023-05-11T04:07:21;95485.09;;;11.13;46.81
73671;BME280;61968;48.178;11.566;2023-05-11T04:09:48;95490.72;;;11.34;50.18
73671;BME280;61968;48.178;11.566;2023-05-11T04:12:14;95487.50;;;11.31;44.16
73671;BME280;61968;48.178;11.566;2023-05-11T04:14:41;95482.47;;;10.84;44.93
73671;BME280;61968;48.178;11.566;2023-05-11T04:17:08;95485.38;;;10.43;45.92
73671;BME280;61968;48.178;11.566;2023-05-11T04:19:35;95489.03;;;10.13;46.61
73671;BME280;61968;48.178;11.566;2023-05-11T04:22:02;95488.25;;;10.01;47.05
73671;BME280;61968;48.178;11.566;2023-05-11T04:24:28;95489.84;;;9.90;47.43
73671;BME280;61968;48.178;11.566;2023-05-11T04:26:55;95491.00;;;9.70;48.01
73671;BME280;61968;48.178;11.566;2023-05-11T04:29:22;95495.81;;;9.38;48.51
73671;BME280;61968;48.178;11.566;2023-05-11T04:31:48;95495.47;;;9.46;48.77
73671;BME280;61968;48.178;11.566;2023-05-11T04:34:15;95491.56;;;9.37;49.07
73671;BME280;61968;48.178;11.566;2023-05-11T04:36:45;95499.72;;;9.47;48.93
73671;BME280;61968;48.178;11.566;2023-05-11T04:39:12;95496.16;;;9.42;48.78
73671;BME280;61968;48.178;11.566;2023-05-11T04:41:38;95500.63;;;9.41;48.71
73671;BME280;61968;48.178;11.566;2023-05-11T04:44:05;95504.50;;;9.27;49.19
73671;BME280;61968;48.178;11.566;2023-05-11T04:46:31;95500.38;;;9.19;49.63
73671;BME280;61968;48.178;11.566;2023-05-11T04:48:58;95495.19;;;9.24;49.20
73671;BME280;61968;48.178;11.566;2023-05-11T04:51:24;95503.22;;;9.18;50.22
73671;BME280;61968;48.178;11.566;2023-05-11T04:53:52;95502.53;;;9.11;50.12
73671;BME280;61968;48.178;11.566;2023-05-11T04:56:18;95500.69;;;9.11;49.85
73671;BME280;61968;48.178;11.566;2023-05-11T04:58:45;95500.81;;;9.05;49.55
73671;BME280;61968;48.178;11.566;2023-05-11T05:01:12;95498.50;;;9.08;49.66
73671;BME280;61968;48.178;11.566;2023-05-11T05:03:38;95507.00;;;9.10;49.49
73671;BME280;61968;48.178;11.566;2023-05-11T05:06:05;95503.56;;;9.10;49.37
73671;BME280;61968;48.178;11.566;2023-05-11T05:08:31;95500.34;;;9.08;49.69
73671;BME280;61968;48.178;11.566;2023-05-11T05:11:00;95503.44;;;9.05;49.69
73671;BME280;61968;48.178;11.566;2023-05-11T05:13:26;95503.13;;;9.13;49.74
73671;BME280;61968;48.178;11.566;2023-05-11T05:15:52;95506.91;;;9.17;49.52
73671;BME280;61968;48.178;11.566;2023-05-11T05:18:19;95504.00;;;9.07;49.51
73671;BME280;61968;48.178;11.566;2023-05-11T05:20:46;95503.66;;;9.03;49.31
73671;BME280;61968;48.178;11.566;2023-05-11T05:23:13;95499.59;;;8.77;50.19
73671;BME280;61968;48.178;11.566;2023-05-11T05:25:39;95509.03;;;8.96;49.56
73671;BME280;61968;48.178;11.566;2023-05-11T05:28:07;95506.03;;;8.93;49.65
73671;BME280;61968;48.178;11.566;2023-05-11T05:30:34;95508.38;;;9.01;50.00
73671;BME280;61968;48.178;11.566;2023-05-11T05:33:01;95510.63;;;8.86;50.04
73671;BME280;61968;48.178;11.566;2023-05-11T05:35:27;95510.03;;;8.84;49.83
73671;BME280;61968;48.178;11.566;2023-05-11T05:37:54;95508.50;;;8.76;50.28
73671;BME280;61968;48.178;11.566;2023-05-11T05:40:20;95509.53;;;8.75;50.07
73671;BME280;61968;48.178;11.566;2023-05-11T05:42:47;95512.44;;;8.67;50.56
73671;BME280;61968;48.178;11.566;2023-05-11T05:45:15;95519.78;;;8.83;50.13
73671;BME280;61968;48.178;11.566;2023-05-11T05:47:42;95515.56;;;8.45;50.54
73671;BME280;61968;48.178;11.566;2023-05-11T05:50:09;95506.59;;;8.34;50.74
73671;BME280;61968;48.178;11.566;2023-05-11T05:52:35;95511.47;;;8.68;50.42
73671;BME280;61968;48.178;11.566;2023-05-11T05:55:02;95519.13;;;8.69;50.29
73671;BME280;61968;48.178;11.566;2023-05-11T05:57:29;95510.13;;;8.58;50.97
73671;BME280;61968;48.178;11.566;2023-05-11T05:59:55;95518.94;;;8.52;51.30
73671;BME280;61968;48.178;11.566;2023-05-11T06:02:23;95516.78;;;8.61;50.65
73671;BME280;61968;48.178;11.566;2023-05-11T06:04:49;95526.44;;;8.67;50.45
73671;BME280;61968;48.178;11.566;2023-05-11T06:07:16;95516.75;;;8.49;50.68
73671;BME280;61968;48.178;11.566;2023-05-11T06:09:42;95519.38;;;8.49;51.00
73671;BME280;61968;48.178;11.566;2023-05-11T06:12:09;95519.84;;;8.58;50.94
73671;BME280;61968;48.178;11.566;2023-05-11T06:14:35;95522.13;;;8.54;50.64
73671;BME280;61968;48.178;11.566;2023-05-11T06:17:02;95521.03;;;8.62;50.51
73671;BME280;61968;48.178;11.566;2023-05-11T06:19:29;95517.53;;;8.50;51.42
73671;BME280;61968;48.178;11.566;2023-05-11T06:21:56;95528.16;;;8.43;51.37
73671;BME280;61968;48.178;11.566;2023-05-11T06:24:22;95519.81;;;8.46;51.32
73671;BME280;61968;48.178;11.566;2023-05-11T06:26:49;95520.63;;;8.47;51.22
73671;BME280;61968;48.178;11.566;2023-05-11T06:29:15;95519.44;;;8.43;51.48
73671;BME280;61968;48.178;11.566;2023-05-11T06:31:44;95525.44;;;8.50;50.87
73671;BME280;61968;48.178;11.566;2023-05-11T06:34:10;95522.72;;;8.56;51.25
73671;BME280;61968;48.178;11.566;2023-05-11T06:36:38;95527.31;;;8.61;50.97
73671;BME280;61968;48.178;11.566;2023-05-11T06:39:04;95524.75;;;8.54;51.23
73671;BME280;61968;48.178;11.566;2023-05-11T06:41:32;95530.72;;;8.50;51.22
73671;BME280;61968;48.178;11.566;2023-05-11T06:43:58;95521.63;;;8.46;51.62
73671;BME280;61968;48.178;11.566;2023-05-11T06:46:24;95525.53;;;8.43;51.41
73671;BME280;61968;48.178;11.566;2023-05-11T06:48:51;95526.63;;;8.35;51.71
73671;BME280;61968;48.178;11.566;2023-05-11T06:51:18;95519.97;;;8.33;52.06
73671;BME280;61968;48.178;11.566;2023-05-11T06:53:47;95526.91;;;8.27;52.10
73671;BME280;61968;48.178;11.566;2023-05-11T06:56:14;95525.22;;;8.33;51.67
73671;BME280;61968;48.178;11.566;2023-05-11T06:58:40;95518.06;;;8.40;52.23
73671;BME280;61968;48.178;11.566;2023-05-11T07:01:07;95518.38;;;8.32;52.41
73671;BME280;61968;48.178;11.566;2023-05-11T07:03:33;95517.47;;;8.38;52.19
73671;BME280;61968;48.178;11.566;2023-05-11T07:05:59;95523.56;;;8.39;51.49
73671;BME280;61968;48.178;11.566;2023-05-11T07:08:27;95519.00;;;8.46;51.70
73671;BME280;61968;48.178;11.566;2023-05-11T07:10:55;95524.56;;;8.56;51.60
73671;BME280;61968;48.178;11.566;2023-05-11T07:13:21;95522.44;;;8.65;51.03
73671;BME280;61968;48.178;11.566;2023-05-11T07:15:47;95528.00;;;8.56;51.50
73671;BME280;61968;48.178;11.566;2023-05-11T07:18:14;95517.31;;;8.51;51.14
73671;BME280;61968;48.178;11.566;2023-05-11T07:20:41;95524.66;;;8.68;50.94
73671;BME280;61968;48.178;11.566;2023-05-11T07:23:07;95535.03;;;8.44;51.81
73671;BME280;61968;48.178;11.566;2023-05-11T07:25:34;95523.47;;;8.27;52.31
73671;BME280;61968;48.178;11.566;2023-05-11T07:28:01;95528.09;;;8.50;51.97
73671;BME280;61968;48.178;11.566;2023-05-11T07:30:28;95528.88;;;8.50;52.22
73671;BME280;61968;48.178;11.566;2023-05-11T07:32:55;95525.44;;;8.50;51.85
73671;BME280;61968;48.178;11.566;2023-05-11T07:35:21;95525.47;;;8.31;52.32
73671;BME280;61968;48.178;11.566;2023-05-11T07:37:47;95528.84;;;8.20;51.93
73671;BME280;61968;48.178;11.566;2023-05-11T07:40:14;95522.00;;;8.31;52.26
73671;BME280;61968;48.178;11.566;2023-05-11T07:42:40;95527.13;;;8.44;51.61
73671;BME280;61968;48.178;11.566;2023-05-11T07:45:08;95531.69;;;8.37;51.84
73671;BME280;61968;48.178;11.566;2023-05-11T07:47:35;95529.09;;;8.30;51.64
73671;BME280;61968;48.178;11.566;2023-05-11T07:50:01;95532.34;;;8.14;52.68
73671;BME280;61968;48.178;11.566;2023-05-11T07:52:28;95532.25;;;8.02;52.78
73671;BME280;61968;48.178;11.566;2023-05-11T07:54:54;95531.66;;;8.00;53.28
73671;BME280;61968;48.178;11.566;2023-05-11T07:57:21;95535.78;;;8.15;52.93
73671;BME280;61968;48.178;11.566;2023-05-11T07:59:47;95524.81;;;8.18;52.88
73671;BME280;61968;48.178;11.566;2023-05-11T08:02:15;95537.97;;;8.18;52.81
73671;BME280;61968;48.178;11.566;2023-05-11T08:04:44;95527.28;;;8.31;52.56
73671;BME280;61968;48.178;11.566;2023-05-11T08:07:10;95534.19;;;8.14;52.85
73671;BME280;61968;48.178;11.566;2023-05-11T08:09:37;95531.91;;;8.17;52.97
73671;BME280;61968;48.178;11.566;2023-05-11T08:12:03;95528.63;;;8.40;52.01
73671;BME280;61968;48.178;11.566;2023-05-11T08:14:31;95526.34;;;8.07;52.69
73671;BME280;61968;48.178;11.566;2023-05-11T08:16:57;95531.09;;;8.17;52.91
73671;BME280;61968;48.178;11.566;2023-05-11T08:19:25;95527.44;;;8.36;53.00
73671;BME280;61968;48.178;11.566;2023-05-11T08:21:51;95523.53;;;8.57;51.98
73671;BME280;61968;48.178;11.566;2023-05-11T08:24:18;95523.75;;;8.55;52.21
73671;BME280;61968;48.178;11.566;2023-05-11T08:26:44;95527.50;;;8.48;52.34
73671;BME280;61968;48.178;11.566;2023-05-11T08:29:11;95519.94;;;8.51;52.46
73671;BME280;61968;48.178;11.566;2023-05-11T08:31:37;95519.16;;;8.32;52.63
73671;BME280;61968;48.178;11.566;2023-05-11T08:34:05;95515.13;;;8.30;53.26
73671;BME280;61968;48.178;11.566;2023-05-11T08:36:34;95510.66;;;8.49;52.69
73671;BME280;61968;48.178;11.566;2023-05-11T08:39:00;95512.19;;;8.56;52.29
73671;BME280;61968;48.178;11.566;2023-05-11T08:41:26;95511.66;;;8.66;51.68
73671;BME280;61968;48.178;11.566;2023-05-11T08:43:54;95516.59;;;8.44;52.67
73671;BME280;61968;48.178;11.566;2023-05-11T08:46:23;95508.19;;;8.35;52.38
73671;BME280;61968;48.178;11.566;2023-05-11T08:48:52;95515.44;;;8.40;53.01
73671;BME280;61968;48.178;11.566;2023-05-11T08:51:18;95521.34;;;8.54;52.76
73671;BME280;61968;48.178;11.566;2023-05-11T08:53:46;95518.94;;;8.52;52.54
73671;BME280;61968;48.178;11.566;2023-05-11T08:56:14;95526.06;;;8.64;52.03
73671;BME280;61968;48.178;11.566;2023-05-11T08:58:41;95524.66;;;8.49;51.99
73671;BME280;61968;48.178;11.566;2023-05-11T09:01:09;95523.88;;;8.61;52.41
73671;BME280;61968;48.178;11.566;2023-05-11T09:03:38;95530.78;;;8.62;51.95
73671;BME280;61968;48.178;11.566;2023-05-11T09:06:06;95527.28;;;8.68;52.25
73671;BME280;61968;48.178;11.566;2023-05-11T09:08:34;95522.63;;;8.63;51.97
73671;BME280;61968;48.178;11.566;2023-05-11T09:11:03;95528.13;;;8.80;51.12
73671;BME280;61968;48.178;11.566;2023-05-11T09:13:30;95530.19;;;8.78;51.34
73671;BME280;61968;48.178;11.566;2023-05-11T09:15:57;95527.22;;;8.86;51.15
73671;BME280;61968;48.178;11.566;2023-05-11T09:18:23;95530.03;;;8.73;52.04
73671;BME280;61968;48.178;11.566;2023-05-11T09:20:50;95525.78;;;8.72;51.27
73671;BME280;61968;48.178;11.566;2023-05-11T09:23:18;95526.66;;;8.66;51.44
73671;BME280;61968;48.178;11.566;2023-05-11T09:25:49;95526.50;;;8.61;51.95
73671;BME280;61968;48.178;11.566;2023-05-11T09:28:20;95529.09;;;8.67;51.66
73671;BME280;61968;48.178;11.566;2023-05-11T09:30:46;95527.53;;;8.78;51.71
73671;BME280;61968;48.178;11.566;2023-05-11T09:33:20;95516.09;;;8.84;51.13
73671;BME280;61968;48.178;11.566;2023-05-11T09:35:47;95523.81;;;8.86;51.02
73671;BME280;61968;48.178;11.566;2023-05-11T09:38:15;95525.41;;;8.87;50.80
73671;BME280;61968;48.178;11.566;2023-05-11T09:40:49;95519.94;;;8.70;51.69
73671;BME280;61968;48.178;11.566;2023-05-11T09:43:18;95520.06;;;8.75;51.82
73671;BME280;61968;48.178;11.566;2023-05-11T09:45:46;95517.22;;;8.58;51.81
73671;BME280;61968;48.178;11.566;2023-05-11T09:48:24;95510.81;;;8.84;56.45
73671;BME280;61968;48.178;11.566;2023-05-11T09:50:57;95517.19;;;9.96;51.22
73671;BME280;61968;48.178;11.566;2023-05-11T09:53:33;95508.91;;;9.57;49.85
73671;BME280;61968;48.178;11.566;2023-05-11T09:55:59;95515.41;;;9.42;50.05
73671;BME280;61968;48.178;11.566;2023-05-11T09:58:43;95515.41;;;9.31;50.38
73671;BME280;61968;48.178;11.566;2023-05-11T10:01:10;95504.75;;;9.37;50.56
73671;BME280;61968;48.178;11.566;2023-05-11T10:03:44;95509.91;;;9.32;50.19
73671;BME280;61968;48.178;11.566;2023-05-11T10:06:11;95511.84;;;9.25;50.92
73671;BME280;61968;48.178;11.566;2023-05-11T10:08:38;95515.94;;;9.09;50.97
73671;BME280;61968;48.178;11.566;2023-05-11T10:11:05;95511.59;;;9.15;50.71
73671;BME280;61968;48.178;11.566;2023-05-11T10:13:34;95509.13;;;8.90;51.12
73671;BME280;61968;48.178;11.566;2023-05-11T10:16:02;95518.22;;;9.06;51.49
73671;BME280;61968;48.178;11.566;2023-05-11T10:18:30;95513.28;;;9.09;51.04
73671;BME280;61968;48.178;11.566;2023-05-11T10:20:57;95512.06;;;9.23;50.30
73671;BME280;61968;48.178;11.566;2023-05-11T10:23:24;95508.25;;;9.08;50.71
73671;BME280;61968;48.178;11.566;2023-05-11T10:25:51;95507.66;;;9.06;51.35
73671;BME280;61968;48.178;11.566;2023-05-11T10:28:19;95514.22;;;9.15;50.49
73671;BME280;61968;48.178;11.566;2023-05-11T10:30:48;95506.06;;;9.05;50.08
73671;BME280;61968;48.178;11.566;2023-05-11T10:33:15;95509.50;;;9.05;50.13
73671;BME280;61968;48.178;11.566;2023-05-11T10:35:44;95506.88;;;9.05;49.96
73671;BME280;61968;48.178;11.566;2023-05-11T10:38:11;95506.53;;;9.01;49.51
73671;BME280;61968;48.178;11.566;2023-05-11T10:40:41;95502.16;;;8.95;50.39
73671;BME280;61968;48.178;11.566;2023-05-11T10:43:22;95507.22;;;9.09;56.15
73671;BME280;61968;48.178;11.566;2023-05-11T10:46:01;95502.88;;;10.32;53.00
73671;BME280;61968;48.178;11.566;2023-05-11T10:51:48;95497.91;;;11.21;47.91
73671;BME280;61968;48.178;11.566;2023-05-11T10:54:28;95504.25;;;11.54;47.88
73671;BME280;61968;48.178;11.566;2023-05-11T10:57:11;95497.53;;;11.80;46.80
73671;BME280;61968;48.178;11.566;2023-05-11T10:59:49;95503.53;;;11.75;45.32
73671;BME280;61968;48.178;11.566;2023-05-11T11:02:20;95496.31;;;11.20;46.19
73671;BME280;61968;48.178;11.566;2023-05-11T11:04:48;95493.47;;;10.93;47.27
73671;BME280;61968;48.178;11.566;2023-05-11T11:07:15;95497.56;;;10.72;47.77
73671;BME280;61968;48.178;11.566;2023-05-11T11:09:50;95500.75;;;10.46;48.02
73671;BME280;61968;48.178;11.566;2023-05-11T11:12:17;95504.31;;;10.51;47.84
73671;BME280;61968;48.178;11.566;2023-05-11T11:14:57;95495.84;;;10.37;48.11
73671;BME280;61968;48.178;11.566;2023-05-11T11:17:27;95497.47;;;10.27;48.49
73671;BME280;61968;48.178;11.566;2023-05-11T11:19:56;95496.50;;;10.16;48.79
73671;BME280;61968;48.178;11.566;2023-05-11T11:22:42;95499.38;;;10.03;49.12
73671;BME280;61968;48.178;11.566;2023-05-11T11:25:09;95504.66;;;10.03;49.04
73671;BME280;61968;48.178;11.566;2023-05-11T11:27:57;95503.97;;;9.96;49.77
73671;BME280;61968;48.178;11.566;2023-05-11T11:30:27;95497.91;;;9.83;50.49
73671;BME280;61968;48.178;11.566;2023-05-11T11:33:31;95503.66;;;9.80;50.17
73671;BME280;61968;48.178;11.566;2023-05-11T11:35:58;95495.16;;;9.78;50.45
73671;BME280;61968;48.178;11.566;2023-05-11T11:38:25;95495.00;;;9.73;50.68
73671;BME280;61968;48.178;11.566;2023-05-11T11:40:52;95498.03;;;9.77;51.19
73671;BME280;61968;48.178;11.566;2023-05-11T11:43:20;95497.56;;;9.80;50.67
73671;BME280;61968;48.178;11.566;2023-05-11T11:45:51;95503.97;;;9.72;50.67
73671;BME280;61968;48.178;11.566;2023-05-11T11:48:28;95498.69;;;9.72;50.41
73671;BME280;61968;48.178;11.566;2023-05-11T11:51:03;95506.28;;;9.80;49.74
73671;BME280;61968;48.178;11.566;2023-05-11T11:54:03;95498.94;;;9.70;50.02
73671;BME280;61968;48.178;11.566;2023-05-11T11:56:39;95497.75;;;9.66;49.99
73671;BME280;61968;48.178;11.566;2023-05-11T11:59:06;95506.47;;;9.67;50.62
73671;BME280;61968;48.178;11.566;2023-05-11T12:01:37;95492.47;;;9.66;50.17
73671;BME280;61968;48.178;11.566;2023-05-11T12:04:42;95497.88;;;9.60;50.84
73671;BME280;61968;48.178;11.566;2023-05-11T12:07:11;95500.31;;;9.61;50.31
73671;BME280;61968;48.178;11.566;2023-05-11T12:09:38;95495.47;;;9.58;50.61
73671;BME280;61968;48.178;11.566;2023-05-11T12:12:06;95494.88;;;9.44;51.66
73671;BME280;61968;48.178;11.566;2023-05-11T12:14:34;95493.97;;;9.51;51.17
73671;BME280;61968;48.178;11.566;2023-05-11T12:17:03;95489.84;;;9.55;51.62
73671;BME280;61968;48.178;11.566;2023-05-11T12:19:32;95492.47;;;9.55;51.60
73671;BME280;61968;48.178;11.566;2023-05-11T12:22:03;95494.66;;;9.58;51.77
73671;BME280;61968;48.178;11.566;2023-05-11T12:24:30;95488.81;;;9.56;51.07
73671;BME280;61968;48.178;11.566;2023-05-11T12:26:57;95503.28;;;9.53;51.07
73671;BME280;61968;48.178;11.566;2023-05-11T12:29:23;95482.63;;;9.62;50.68
73671;BME280;61968;48.178;11.566;2023-05-11T12:31:51;95488.13;;;9.60;51.17
73671;BME280;61968;48.178;11.566;2023-05-11T12:34:19;95485.94;;;9.69;51.12
73671;BME280;61968;48.178;11.566;2023-05-11T12:36:47;95488.03;;;9.55;51.15
73671;BME280;61968;48.178;11.566;2023-05-11T12:39:19;95480.91;;;9.56;50.82
73671;BME280;61968;48.178;11.566;2023-05-11T12:41:46;95475.72;;;9.61;51.41
73671;BME280;61968;48.178;11.566;2023-05-11T12:44:14;95470.91;;;9.58;51.07
73671;BME280;61968;48.178;11.566;2023-05-11T12:46:42;95475.16;;;9.59;50.70
73671;BME280;61968;48.178;11.566;2023-05-11T12:49:09;95473.78;;;9.56;50.99
73671;BME280;61968;48.178;11.566;2023-05-11T12:51:48;95475.38;;;9.57;50.92
73671;BME280;61968;48.178;11.566;2023-05-11T12:54:30;95470.81;;;9.53;51.43
73671;BME280;61968;48.178;11.566;2023-05-11T12:56:58;95471.72;;;9.58;51.26
73671;BME280;61968;48.178;11.566;2023-05-11T12:59:27;95472.16;;;9.67;51.19
73671;BME280;61968;48.178;11.566;2023-05-11T13:01:53;95475.38;;;9.57;51.81
73671;BME280;61968;48.178;11.566;2023-05-11T13:04:29;95471.16;;;9.56;51.53
73671;BME280;61968;48.178;11.566;2023-05-11T13:06:57;95473.66;;;9.63;51.09